Hauptseite
METAR-TAF:

METAR-TAF

Flughäfen :

Tunis, Tunesien

Flughafen Tunis

Breite: 36-50N, Länge: 010-14E, Höhe: 3 m

Beobachtung

Neuester Wetterbericht von vor 15 Minuten, um 05:00 UTC
Wind 3 kt aus Süd
Temperatur 10°C
Luftfeuchtigkeit 93%
Luftdruck 1021 hPa
Sichtweite: 8000 m
Aufgelockert bewölkt in der Höhe von 2600 ft

METAR: DTTA 260500Z 18003KT 8000 SCT026 10/09 Q1021

Zeit: 06:15 (05:15 UTC)

Prognose

Neuester Wetterbericht von vor 6 Stunden und 11 Minuten, um 23:04 UTC
Gültige Prognose vom 26 um 00 UTC bis 26 um 24 UTC
Wind 13 kt aus Nord/Nordwest
Sichtweite 10 km oder mehr
Aufgelockert bewölkt in der Höhe von 2300 ft

TAF: DTTA 252304Z 2600/2624 34013KT 9999 SCT023

Wetterbeobachtungen und Prognosen von mehr als 4000 Flughäfen (METAR und TAF Bericht).

Die verfügbaren Stationen werden durch gelbe und rote Markierungen auf der Karte dargestellt.

Führen Sie die Maus auf sie, um den Namen der Station zu sehen.

Darauf klicken, um die Beobachtung von Wetterbeobachtungen und Prognosen zu sehen.

Um die Karte zu ändern : klicken Sie auf den grünen Tasten mit einem schwarzen Kreuz Zum Vergrößern, auf den grünen Button mit einem Gedankenstrich zu verkleinern, oder auf die grünen Pfeile für benachbarte Karten.


METAR-TAF: